Terminal Aerodrome Forecast
Issued by NWS

Home | Current Version | Previous Version | Text Only | Print | Product List | Glossary On
Versions: 1 2 3 4 5 6 7 8 9 10 11 12 13 14 15 16
000
FTUS43 KJKL 230805 AAA
TAFSME
TAF AMD
KSME 230805Z 2308/2406 VRB03KT 4SM BR SCT080 WS020/22035KT
     FM230900 18004KT P6SM SCT050 BKN100 WS020/22035KT
     FM231200 20006KT P6SM SCT020 BKN100
     FM231600 22011G20KT P6SM VCSH BKN035
     FM232300 22006KT P6SM BKN100=

USA.gov is the U.S. government's official web portal to all federal, state and local government web resources and services.